Time;durP1;ratioP1;P1;durP2;ratioP2;P2;SDS_P1;SDS_P2;PMS_P1;PMS_P2;Temp;Humidity;BMP_temperature;BMP_pressure;BME280_temperature;BME280_humidity;BME280_pressure;Samples;Min_cycle;Max_cycle;Signal;HPM_P1;HPM_P2
2021/08/15 00:02:04;;;;;;;1.95;1.23;;;20.40;67.50;;;;;;5056315;28;20109;-78
2021/08/15 00:04:32;;;;;;;3.25;1.35;;;20.40;67.90;;;;;;5056625;28;20031;-78
2021/08/15 00:06:58;;;;;;;2.47;1.60;;;20.30;68.00;;;;;;5071775;28;20107;-78
2021/08/15 00:09:23;;;;;;;2.78;1.50;;;20.30;68.20;;;;;;5076471;28;20113;-78
2021/08/15 00:11:49;;;;;;;1.70;1.02;;;20.30;68.30;;;;;;5055762;28;20079;-78
2021/08/15 00:14:15;;;;;;;1.88;1.02;;;20.20;68.30;;;;;;5056438;28;20451;-78
2021/08/15 00:16:41;;;;;;;2.70;1.40;;;20.30;68.60;;;;;;5056447;28;20052;-78
2021/08/15 00:19:07;;;;;;;3.03;1.30;;;20.20;68.90;;;;;;5056508;28;20107;-77
2021/08/15 00:21:38;;;;;;;3.25;1.30;;;20.20;69.00;;;;;;5056233;28;20029;-77
2021/08/15 00:24:05;;;;;;;2.60;1.35;;;20.20;68.90;;;;;;5056307;28;20402;-78
2021/08/15 00:26:31;;;;;;;2.40;1.35;;;20.20;68.90;;;;;;5070578;28;20419;-78
2021/08/15 00:28:57;;;;;;;2.22;1.40;;;20.20;68.50;;;;;;5056106;28;20040;-78
2021/08/15 00:31:26;;;;;;;2.17;1.42;;;20.20;68.60;;;;;;5056036;28;20032;-78
2021/08/15 00:33:51;;;;;;;1.73;1.23;;;20.00;69.40;;;;;;5054651;28;20480;-78
2021/08/15 00:36:17;;;;;;;2.20;1.40;;;20.00;69.20;;;;;;5054639;28;20044;-77
2021/08/15 00:38:42;;;;;;;2.38;1.27;;;20.00;68.90;;;;;;5054718;28;20056;-78
2021/08/15 00:41:08;;;;;;;3.17;1.48;;;20.00;68.90;;;;;;5066317;28;20162;-78
2021/08/15 00:43:34;;;;;;;2.17;1.20;;;20.00;69.00;;;;;;5075648;28;20048;-78
2021/08/15 00:46:09;;;;;;;2.80;1.52;;;19.90;69.60;;;;;;5074832;28;20036;-78
2021/08/15 00:48:35;;;;;;;3.03;1.45;;;19.90;69.90;;;;;;5058445;28;20033;-78
2021/08/15 00:51:01;;;;;;;2.15;1.65;;;19.80;69.20;;;;;;5055862;28;20502;-78
2021/08/15 00:53:32;;;;;;;2.92;1.30;;;19.80;69.80;;;;;;5055824;28;20021;-77
2021/08/15 00:55:59;;;;;;;2.08;1.15;;;19.80;69.60;;;;;;5055777;28;20028;-78
2021/08/15 00:58:31;;;;;;;1.67;1.20;;;19.80;69.70;;;;;;5058019;28;20538;-78
2021/08/15 01:01:01;;;;;;;2.40;1.50;;;19.80;70.30;;;;;;5064370;28;20471;-78
2021/08/15 01:03:27;;;;;;;2.42;1.25;;;19.70;70.10;;;;;;5067552;28;20025;-78
2021/08/15 01:05:54;;;;;;;3.10;1.55;;;19.70;70.30;;;;;;5055667;28;20091;-78
2021/08/15 01:08:19;;;;;;;2.40;1.23;;;19.70;70.10;;;;;;5054260;28;20025;-78
2021/08/15 01:10:45;;;;;;;1.65;1.27;;;19.60;70.50;;;;;;5055640;28;20033;-78
2021/08/15 01:13:11;;;;;;;2.25;1.50;;;19.60;70.60;;;;;;5054134;28;20124;-77
2021/08/15 01:15:38;;;;;;;2.40;1.30;;;19.60;70.60;;;;;;5055357;28;20033;-78
2021/08/15 01:18:29;;;;;;;;;;;;;;;;;;;;;
2021/08/15 01:20:58;;;;;;;2.53;1.50;;;19.50;71.20;;;;;;5055339;28;20039;-78
2021/08/15 01:23:23;;;;;;;2.50;1.52;;;19.50;70.60;;;;;;5055305;28;20573;-78
2021/08/15 01:25:49;;;;;;;3.47;1.60;;;19.50;70.80;;;;;;5055398;28;20032;-78
2021/08/15 01:28:17;;;;;;;1.83;1.40;;;19.40;71.30;;;;;;5056141;28;20021;-78
2021/08/15 01:30:43;;;;;;;3.08;1.77;;;19.50;71.10;;;;;;5075455;28;20024;-78
2021/08/15 01:33:11;;;;;;;2.15;1.42;;;19.40;70.70;;;;;;5069459;28;20036;-78
2021/08/15 01:35:39;;;;;;;2.33;1.40;;;19.40;71.10;;;;;;5055177;28;20025;-77
2021/08/15 01:38:04;;;;;;;2.88;1.63;;;19.40;71.10;;;;;;5063652;28;20487;-78
2021/08/15 01:40:30;;;;;;;2.08;1.58;;;19.40;71.90;;;;;;5073793;28;20048;-78
2021/08/15 01:42:56;;;;;;;2.90;1.52;;;19.30;71.50;;;;;;5074008;28;20030;-79
2021/08/15 01:45:21;;;;;;;2.80;1.40;;;19.30;71.50;;;;;;5074040;28;20036;-77
2021/08/15 01:47:47;;;;;;;2.45;1.70;;;19.30;72.30;;;;;;5073976;28;20032;-78
2021/08/15 01:50:12;;;;;;;3.00;1.50;;;19.30;71.50;;;;;;5075115;28;20025;-78
2021/08/15 01:52:46;;;;;;;2.30;1.42;;;19.30;71.80;;;;;;5074007;28;20071;-78
2021/08/15 01:55:12;;;;;;;2.78;1.50;;;19.30;72.10;;;;;;5053808;28;20037;-78
2021/08/15 01:57:37;;;;;;;3.00;1.75;;;19.30;71.90;;;;;;5055172;28;20025;-78
2021/08/15 02:00:04;;;;;;;2.83;1.55;;;19.20;72.20;;;;;;5070323;28;20066;-78
2021/08/15 02:02:30;;;;;;;2.00;1.40;;;19.20;72.20;;;;;;5070511;28;20029;-78
2021/08/15 02:04:56;;;;;;;2.10;1.45;;;19.20;71.90;;;;;;5054880;28;21131;-78
2021/08/15 02:07:21;;;;;;;2.20;1.45;;;19.20;72.20;;;;;;5053742;28;20033;-78
2021/08/15 02:09:49;;;;;;;2.50;1.55;;;19.20;72.60;;;;;;5053710;28;20029;-77
2021/08/15 02:12:15;;;;;;;2.83;1.63;;;19.10;72.40;;;;;;5053804;28;20040;-78
2021/08/15 02:14:41;;;;;;;2.55;1.50;;;19.10;72.20;;;;;;5053703;28;20029;-78
2021/08/15 02:17:06;;;;;;;2.40;1.63;;;19.10;72.00;;;;;;5053295;28;20036;-78
2021/08/15 02:19:33;;;;;;;1.83;1.30;;;19.10;72.00;;;;;;5070532;28;20025;-77
2021/08/15 02:21:59;;;;;;;3.40;1.83;;;19.10;71.90;;;;;;5055114;28;20078;-78
2021/08/15 02:24:24;;;;;;;2.13;1.48;;;19.00;71.80;;;;;;5068987;28;20025;-78
2021/08/15 02:26:52;;;;;;;2.13;1.20;;;18.80;72.60;;;;;;5053676;28;20067;-77
2021/08/15 02:29:18;;;;;;;1.70;1.20;;;18.80;72.40;;;;;;5070157;28;20021;-78
2021/08/15 02:31:44;;;;;;;2.30;1.23;;;18.90;72.40;;;;;;5053290;28;20036;-78
2021/08/15 02:34:10;;;;;;;1.98;1.15;;;18.80;72.60;;;;;;5054738;28;20033;-77
2021/08/15 02:36:35;;;;;;;2.80;1.60;;;18.80;72.30;;;;;;5057824;28;20095;-78
2021/08/15 02:39:01;;;;;;;1.75;1.23;;;18.80;72.30;;;;;;5072974;28;20032;-78
2021/08/15 02:41:27;;;;;;;2.40;1.20;;;18.80;72.10;;;;;;5078223;28;20021;-78
2021/08/15 02:43:57;;;;;;;2.75;1.55;;;18.80;72.00;;;;;;5078198;28;20052;-78
2021/08/15 02:46:22;;;;;;;2.33;1.65;;;18.80;72.40;;;;;;5072792;28;20032;-78
2021/08/15 02:48:48;;;;;;;4.47;1.73;;;18.80;72.40;;;;;;5057938;28;20112;-78
2021/08/15 02:51:14;;;;;;;2.47;1.33;;;18.80;72.30;;;;;;5058031;28;20128;-78
2021/08/15 02:53:39;;;;;;;2.08;1.48;;;18.70;72.70;;;;;;5057796;28;20099;-78
2021/08/15 02:56:05;;;;;;;2.28;1.45;;;18.80;72.70;;;;;;5058261;28;20033;-78
2021/08/15 02:58:31;;;;;;;2.08;1.38;;;18.70;72.50;;;;;;5058039;28;20078;-78
2021/08/15 03:01:04;;;;;;;2.25;1.20;;;18.70;72.70;;;;;;5056619;28;20029;-77
2021/08/15 03:03:30;;;;;;;2.90;1.30;;;18.60;73.10;;;;;;5056736;28;20483;-78
2021/08/15 03:05:55;;;;;;;2.65;1.42;;;18.60;72.90;;;;;;5061443;28;20036;-78
2021/08/15 03:08:21;;;;;;;3.67;1.83;;;18.60;73.20;;;;;;5077883;28;20770;-77
2021/08/15 03:10:46;;;;;;;2.08;1.30;;;18.50;72.80;;;;;;5064305;28;20033;-78
2021/08/15 03:13:12;;;;;;;2.47;1.52;;;18.50;73.00;;;;;;5057660;28;20067;-78
2021/08/15 03:15:40;;;;;;;1.88;1.20;;;18.50;73.10;;;;;;5056420;28;20032;-78
2021/08/15 03:18:08;;;;;;;2.40;1.48;;;18.50;73.00;;;;;;5056217;28;20120;-77
2021/08/15 03:20:34;;;;;;;2.53;1.38;;;18.50;73.20;;;;;;5072875;28;20025;-78
2021/08/15 03:23:00;;;;;;;2.55;1.45;;;18.40;72.90;;;;;;5077768;28;20021;-78
2021/08/15 03:25:25;;;;;;;2.35;1.20;;;18.40;72.70;;;;;;5077507;28;20032;-78
2021/08/15 03:27:51;;;;;;;3.10;1.50;;;18.50;72.80;;;;;;5072650;28;20112;-78
2021/08/15 03:30:17;;;;;;;1.65;1.17;;;18.50;72.50;;;;;;5057445;28;20033;-78
2021/08/15 03:32:42;;;;;;;2.20;1.30;;;18.40;72.50;;;;;;5055940;28;20033;-78
2021/08/15 03:35:13;;;;;;;4.15;1.50;;;18.30;73.10;;;;;;5057382;28;20028;-77
2021/08/15 03:37:38;;;;;;;2.25;1.50;;;18.30;72.90;;;;;;5057145;28;20400;-78
2021/08/15 03:40:05;;;;;;;2.40;1.27;;;18.30;72.80;;;;;;5058692;28;20021;-78
2021/08/15 03:42:32;;;;;;;1.80;1.33;;;18.20;73.20;;;;;;5077061;28;20019;-78
2021/08/15 03:44:57;;;;;;;3.40;1.40;;;18.20;73.30;;;;;;5076980;28;20127;-78
2021/08/15 03:47:23;;;;;;;1.73;1.23;;;18.10;73.30;;;;;;5070155;28;20072;-78
2021/08/15 03:49:49;;;;;;;2.33;1.35;;;18.00;73.70;;;;;;5057008;28;20021;-78
2021/08/15 03:52:17;;;;;;;3.85;1.67;;;18.00;73.50;;;;;;5072252;28;20550;-77
2021/08/15 03:54:42;;;;;;;1.75;1.10;;;18.10;73.10;;;;;;5067207;28;20036;-77
2021/08/15 03:57:08;;;;;;;3.05;1.40;;;18.10;73.20;;;;;;5055623;28;20021;-78
2021/08/15 03:59:33;;;;;;;2.40;1.40;;;18.10;72.90;;;;;;5056660;28;20025;-77
2021/08/15 04:01:59;;;;;;;3.13;1.52;;;18.10;72.90;;;;;;5056396;28;20040;-78
2021/08/15 04:04:25;;;;;;;2.55;1.40;;;18.10;72.90;;;;;;5057031;28;20475;-78
2021/08/15 04:06:50;;;;;;;2.33;1.30;;;18.00;73.00;;;;;;5056534;28;20040;-78
2021/08/15 04:09:33;;;;;;;3.08;1.35;;;18.00;73.10;;;;;;5056570;28;20029;-77
2021/08/15 04:11:58;;;;;;;2.65;1.50;;;18.00;72.90;;;;;;5056471;28;20142;-78
2021/08/15 04:14:24;;;;;;;2.65;1.50;;;18.00;72.60;;;;;;5056387;28;20116;-78
2021/08/15 04:16:50;;;;;;;2.72;1.67;;;17.90;73.10;;;;;;5056433;28;20107;-78
2021/08/15 04:19:15;;;;;;;3.15;1.30;;;17.90;73.40;;;;;;5056398;28;20036;-78
2021/08/15 04:21:41;;;;;;;2.35;1.48;;;17.80;73.60;;;;;;5056361;28;20221;-78
2021/08/15 04:24:06;;;;;;;2.33;1.30;;;17.70;73.70;;;;;;5055057;28;20093;-78
2021/08/15 04:26:35;;;;;;;2.40;1.20;;;17.80;73.20;;;;;;5056135;28;20119;-78
2021/08/15 04:29:01;;;;;;;2.05;1.35;;;17.80;73.50;;;;;;5056330;28;20037;-78
2021/08/15 04:31:26;;;;;;;3.55;1.30;;;17.70;73.90;;;;;;5056298;28;20031;-78
2021/08/15 04:33:52;;;;;;;2.45;1.13;;;17.70;73.40;;;;;;5056076;28;20111;-78
2021/08/15 04:36:18;;;;;;;2.58;1.40;;;17.70;73.40;;;;;;5055898;28;20159;-78
2021/08/15 04:38:43;;;;;;;3.90;1.30;;;17.70;73.20;;;;;;5056031;28;20017;-78
2021/08/15 04:41:09;;;;;;;1.52;1.15;;;17.70;73.20;;;;;;5066358;28;20020;-78
2021/08/15 04:43:35;;;;;;;2.38;1.33;;;17.70;72.90;;;;;;5074582;28;20075;-78
2021/08/15 04:46:01;;;;;;;2.42;1.35;;;17.70;73.20;;;;;;5075975;28;20364;-78
2021/08/15 04:48:27;;;;;;;2.42;1.55;;;17.70;73.10;;;;;;5057585;28;20024;-78
2021/08/15 04:50:53;;;;;;;3.17;1.40;;;17.70;73.40;;;;;;5056108;28;20051;-78
2021/08/15 04:53:18;;;;;;;2.13;1.17;;;17.60;73.20;;;;;;5054464;28;20028;-78
2021/08/15 04:55:44;;;;;;;2.25;1.30;;;17.50;73.50;;;;;;5055843;28;20033;-78
2021/08/15 04:58:09;;;;;;;1.73;1.23;;;17.50;73.50;;;;;;5055437;28;20025;-78
2021/08/15 05:00:40;;;;;;;1.70;1.30;;;17.50;73.30;;;;;;5055681;28;20391;-77
2021/08/15 05:03:07;;;;;;;1.92;1.17;;;17.50;73.20;;;;;;5055608;28;20112;-77
2021/08/15 05:05:32;;;;;;;1.38;0.93;;;17.50;73.20;;;;;;5055711;28;20053;-78
2021/08/15 05:07:58;;;;;;;2.10;1.20;;;17.40;73.10;;;;;;5055600;28;20037;-78
2021/08/15 05:10:24;;;;;;;1.67;1.08;;;17.40;73.00;;;;;;5055634;28;20037;-78
2021/08/15 05:12:49;;;;;;;1.52;1.10;;;17.40;73.20;;;;;;5055442;28;20029;-78
2021/08/15 05:15:15;;;;;;;2.90;1.27;;;17.30;73.40;;;;;;5055435;28;20065;-78
2021/08/15 05:17:41;;;;;;;2.63;1.20;;;17.30;73.60;;;;;;5054050;28;20021;-78
2021/08/15 05:20:07;;;;;;;2.33;1.35;;;17.30;73.80;;;;;;5072107;28;20060;-77
2021/08/15 05:22:33;;;;;;;2.67;1.70;;;17.30;73.50;;;;;;5074408;28;20382;-78
2021/08/15 05:24:58;;;;;;;2.00;1.40;;;17.30;72.90;;;;;;5055325;28;20040;-78
2021/08/15 05:27:24;;;;;;;2.10;1.33;;;17.30;73.10;;;;;;5055306;28;20025;-78
2021/08/15 05:29:49;;;;;;;1.70;1.20;;;17.30;72.90;;;;;;5055472;28;20035;-78
2021/08/15 05:32:15;;;;;;;2.10;1.33;;;17.30;73.30;;;;;;5055086;28;20076;-78
2021/08/15 05:34:41;;;;;;;3.55;1.50;;;17.20;73.10;;;;;;5055260;28;20059;-78
2021/08/15 05:37:06;;;;;;;3.13;1.17;;;17.30;73.20;;;;;;5055452;28;20411;-78
2021/08/15 05:39:32;;;;;;;1.95;1.35;;;17.30;72.90;;;;;;5053959;28;20032;-77
2021/08/15 05:41:58;;;;;;;2.33;1.30;;;17.30;72.90;;;;;;5062068;28;20013;-77
2021/08/15 05:44:23;;;;;;;1.83;1.20;;;17.30;72.40;;;;;;5055103;28;20052;-77
2021/08/15 05:46:49;;;;;;;2.13;1.27;;;17.20;72.80;;;;;;5070639;28;20033;-77
2021/08/15 05:49:15;;;;;;;2.22;1.30;;;17.20;73.10;;;;;;5054090;28;20086;-78
2021/08/15 05:51:40;;;;;;;2.38;1.30;;;17.20;72.80;;;;;;5053973;28;20032;-78
2021/08/15 05:54:06;;;;;;;2.58;1.50;;;17.20;72.80;;;;;;5055017;28;20163;-78
2021/08/15 05:56:33;;;;;;;2.63;1.20;;;17.20;72.80;;;;;;5055094;28;20102;-78
2021/08/15 05:58:59;;;;;;;1.98;1.20;;;17.20;72.80;;;;;;5055141;28;20047;-78
2021/08/15 06:01:25;;;;;;;1.73;1.20;;;17.30;72.90;;;;;;5055236;28;20092;-78
2021/08/15 06:03:50;;;;;;;2.40;1.10;;;17.20;72.70;;;;;;5055157;28;20093;-78
2021/08/15 06:06:16;;;;;;;1.88;1.23;;;17.30;72.60;;;;;;5054975;28;20096;-78
2021/08/15 06:08:42;;;;;;;2.53;1.27;;;17.30;72.80;;;;;;5053795;28;20049;-78
2021/08/15 06:11:07;;;;;;;1.33;1.00;;;17.30;72.70;;;;;;5057391;28;20507;-77
2021/08/15 06:13:33;;;;;;;1.85;1.13;;;17.30;72.70;;;;;;5058882;28;20085;-78
2021/08/15 06:15:59;;;;;;;1.88;1.30;;;17.30;72.80;;;;;;5058660;28;20056;-78
2021/08/15 06:18:24;;;;;;;1.48;1.00;;;17.30;73.30;;;;;;5058766;28;20029;-78
2021/08/15 06:20:50;;;;;;;1.73;1.20;;;17.30;73.10;;;;;;5058636;28;20079;-78
2021/08/15 06:23:15;;;;;;;1.83;1.10;;;17.20;73.70;;;;;;5058608;28;20028;-78
2021/08/15 06:25:42;;;;;;;1.73;1.17;;;17.20;73.40;;;;;;5058570;28;20039;-78
2021/08/15 06:28:07;;;;;;;1.80;1.33;;;17.30;72.80;;;;;;5058401;28;20419;-77
2021/08/15 06:30:33;;;;;;;2.88;1.55;;;17.30;73.10;;;;;;5058508;28;20025;-78
2021/08/15 06:33:01;;;;;;;2.20;1.50;;;17.40;73.50;;;;;;5058306;28;20415;-78
2021/08/15 06:35:27;;;;;;;2.13;1.35;;;17.40;73.30;;;;;;5058321;28;20102;-77
2021/08/15 06:37:54;;;;;;;1.60;1.30;;;17.50;73.60;;;;;;5058384;28;20047;-78
2021/08/15 06:40:25;;;;;;;1.70;1.40;;;17.40;74.00;;;;;;5060733;28;20498;-78
2021/08/15 06:42:51;;;;;;;2.42;1.35;;;17.50;74.00;;;;;;5058554;28;20029;-77
2021/08/15 06:45:19;;;;;;;2.30;1.73;;;17.50;73.50;;;;;;5063399;28;20094;-77
2021/08/15 06:47:45;;;;;;;2.13;1.60;;;17.60;73.00;;;;;;5062795;28;20033;-78
2021/08/15 06:50:12;;;;;;;1.85;1.40;;;17.70;73.40;;;;;;5073742;28;20048;-78
2021/08/15 06:52:38;;;;;;;2.17;1.42;;;17.70;73.40;;;;;;5064448;28;20039;-78
2021/08/15 06:55:05;;;;;;;2.08;1.80;;;17.80;73.60;;;;;;5076799;28;20028;-78
2021/08/15 06:57:30;;;;;;;2.70;2.00;;;17.90;73.60;;;;;;5068872;28;20031;-77
2021/08/15 06:59:56;;;;;;;2.85;1.50;;;17.90;73.50;;;;;;5058049;28;20111;-78
2021/08/15 07:02:48;;;;;;;2.42;1.83;;;18.00;73.50;;;;;;5057596;28;20025;-78
2021/08/15 07:05:14;;;;;;;2.05;1.58;;;18.20;73.10;;;;;;5057849;28;20053;-78
2021/08/15 07:07:40;;;;;;;2.08;1.70;;;18.30;72.90;;;;;;5058123;28;20021;-78
2021/08/15 07:10:07;;;;;;;1.63;1.38;;;18.40;72.90;;;;;;5057579;28;20146;-78
2021/08/15 07:12:33;;;;;;;3.08;1.95;;;18.60;72.50;;;;;;5057907;28;20029;-78
2021/08/15 07:14:58;;;;;;;2.72;1.85;;;19.10;71.70;;;;;;5057894;28;20029;-78
2021/08/15 07:17:24;;;;;;;2.20;1.70;;;19.40;71.10;;;;;;5061380;28;20032;-78
2021/08/15 07:19:50;;;;;;;2.38;1.67;;;19.70;70.80;;;;;;5077729;28;20107;-78
2021/08/15 07:22:16;;;;;;;2.20;1.88;;;19.80;70.50;;;;;;5059686;28;20098;-78
2021/08/15 07:24:41;;;;;;;3.00;1.90;;;19.90;69.40;;;;;;5057497;28;20116;-78
2021/08/15 07:27:07;;;;;;;2.33;1.70;;;20.00;69.50;;;;;;5057294;28;20025;-78
2021/08/15 07:29:33;;;;;;;2.47;1.90;;;20.00;69.90;;;;;;5057549;28;20090;-78
2021/08/15 07:31:58;;;;;;;1.92;1.60;;;19.90;70.00;;;;;;5057256;28;20039;-78
2021/08/15 07:34:24;;;;;;;2.40;1.75;;;20.00;70.10;;;;;;5057214;28;20376;-78
2021/08/15 07:36:50;;;;;;;2.13;1.70;;;20.10;70.10;;;;;;5074714;28;20411;-78
2021/08/15 07:39:16;;;;;;;3.08;2.40;;;20.10;69.70;;;;;;5077268;28;20025;-78
2021/08/15 07:41:42;;;;;;;1.95;1.75;;;20.20;70.10;;;;;;5068701;28;20646;-78
2021/08/15 07:44:07;;;;;;;2.13;1.80;;;20.20;69.70;;;;;;5055601;28;20495;-78
2021/08/15 07:46:33;;;;;;;2.55;2.33;;;20.30;69.80;;;;;;5065788;28;20105;-78
2021/08/15 07:48:59;;;;;;;2.35;2.00;;;20.20;70.30;;;;;;5076866;28;20055;-78
2021/08/15 07:51:28;;;;;;;2.22;2.00;;;20.20;70.00;;;;;;5077250;28;20016;-78
2021/08/15 07:53:54;;;;;;;2.85;2.45;;;20.10;70.70;;;;;;5070838;28;20057;-78
2021/08/15 07:56:20;;;;;;;2.55;1.88;;;20.10;70.80;;;;;;5055611;28;20029;-78
2021/08/15 07:58:46;;;;;;;2.75;2.03;;;20.20;71.50;;;;;;5056761;28;20028;-78
2021/08/15 08:01:11;;;;;;;2.95;2.05;;;20.20;71.70;;;;;;5057320;28;20033;-78
2021/08/15 08:03:37;;;;;;;2.88;2.00;;;20.20;71.80;;;;;;5076695;28;20391;-78
2021/08/15 08:06:03;;;;;;;2.63;2.15;;;20.10;71.50;;;;;;5076581;28;20066;-78
2021/08/15 08:08:29;;;;;;;3.08;2.35;;;20.10;71.30;;;;;;5060861;28;20033;-78
2021/08/15 08:10:55;;;;;;;2.50;2.17;;;20.00;71.60;;;;;;5056602;28;20028;-77
2021/08/15 08:13:22;;;;;;;2.30;1.92;;;20.10;71.60;;;;;;5056468;28;20098;-78
2021/08/15 08:15:48;;;;;;;2.20;2.00;;;20.10;71.70;;;;;;5056479;28;20068;-78
2021/08/15 08:18:14;;;;;;;2.40;1.92;;;20.10;71.80;;;;;;5056299;28;20094;-78
2021/08/15 08:20:40;;;;;;;2.55;2.00;;;20.10;72.20;;;;;;5056309;28;20029;-78
2021/08/15 08:23:14;;;;;;;2.78;2.17;;;20.10;72.10;;;;;;5056689;28;20057;-78
2021/08/15 08:25:43;;;;;;;3.10;1.90;;;20.20;72.10;;;;;;5056410;28;20063;-78
2021/08/15 08:28:10;;;;;;;2.58;1.90;;;20.20;71.70;;;;;;5056342;28;20032;-78
2021/08/15 08:30:35;;;;;;;1.65;1.50;;;20.30;71.80;;;;;;5061998;28;20039;-78
2021/08/15 08:33:01;;;;;;;2.05;1.65;;;20.30;71.00;;;;;;5075722;28;20032;-78
2021/08/15 08:35:27;;;;;;;2.30;1.90;;;20.30;71.00;;;;;;5074649;28;20031;-78
2021/08/15 08:37:52;;;;;;;2.20;2.00;;;20.40;70.80;;;;;;5071315;28;20225;-78
2021/08/15 08:40:20;;;;;;;2.13;1.60;;;20.50;70.70;;;;;;5059397;28;20071;-78
2021/08/15 08:42:47;;;;;;;2.10;1.88;;;20.60;70.00;;;;;;5076017;28;20017;-78
2021/08/15 08:45:14;;;;;;;2.17;1.70;;;20.80;68.90;;;;;;5056850;28;20052;-78
2021/08/15 08:47:41;;;;;;;2.63;1.90;;;20.80;69.10;;;;;;5055719;28;20395;-78
2021/08/15 08:50:07;;;;;;;1.88;1.52;;;21.00;68.30;;;;;;5055967;28;20036;-78
2021/08/15 08:52:33;;;;;;;2.28;1.40;;;21.10;67.80;;;;;;5055511;28;20036;-78
2021/08/15 08:55:00;;;;;;;1.65;1.30;;;21.40;67.20;;;;;;5071004;28;20491;-77
2021/08/15 08:57:27;;;;;;;1.50;1.30;;;22.00;65.30;;;;;;5055710;28;20411;-78
2021/08/15 08:59:53;;;;;;;1.30;1.10;;;22.50;63.20;;;;;;5055810;28;20024;-78
2021/08/15 09:02:19;;;;;;;1.30;1.00;;;22.40;62.60;;;;;;5055529;28;20059;-78
2021/08/15 09:04:46;;;;;;;1.15;0.88;;;22.80;61.90;;;;;;5054235;28;20123;-78
2021/08/15 09:07:16;;;;;;;1.40;1.30;;;22.80;61.70;;;;;;5055686;28;20115;-78
2021/08/15 09:10:03;;;;;;;1.17;0.80;;;25.20;56.60;;;;;;5070181;28;20025;-78
2021/08/15 09:12:50;;;;;;;1.70;1.15;;;25.80;53.50;;;;;;5055360;28;20035;-78
2021/08/15 09:15:21;;;;;;;1.58;0.90;;;25.90;54.00;;;;;;5067277;28;20036;-78
2021/08/15 09:17:48;;;;;;;1.25;0.95;;;26.10;52.60;;;;;;5075581;28;20082;-78
2021/08/15 09:20:21;;;;;;;1.52;1.02;;;25.70;53.30;;;;;;5075586;28;20021;-78
2021/08/15 09:22:46;;;;;;;1.40;0.93;;;25.20;53.70;;;;;;5071115;28;20050;-78
2021/08/15 09:25:18;;;;;;;1.05;0.73;;;24.50;56.00;;;;;;5055447;28;20521;-78
2021/08/15 09:27:56;;;;;;;1.85;1.30;;;24.30;57.00;;;;;;5055357;28;20376;-78
2021/08/15 09:30:29;;;;;;;1.55;1.38;;;24.00;56.50;;;;;;5055144;28;20029;-78
2021/08/15 09:32:59;;;;;;;1.17;0.90;;;23.70;57.60;;;;;;5053782;28;20174;-78
2021/08/15 09:35:29;;;;;;;;;;;24.00;57.60;;;;;;5055686;28;20033;-78
2021/08/15 09:38:05;;;;;;;1.38;1.00;;;23.80;58.10;;;;;;5055328;28;19905;-78
2021/08/15 09:40:36;;;;;;;1.20;1.00;;;23.90;57.50;;;;;;5060490;28;20027;-78
2021/08/15 09:43:07;;;;;;;1.00;0.85;;;24.00;57.80;;;;;;5069829;28;20075;-78
2021/08/15 09:45:47;;;;;;;0.90;0.70;;;23.60;58.40;;;;;;5058537;28;20033;-78
2021/08/15 09:48:30;;;;;;;1.00;0.60;;;23.70;58.80;;;;;;5059152;28;20017;-78
2021/08/15 09:51:02;;;;;;;1.05;0.65;;;23.60;58.40;;;;;;5059446;28;20021;-78
2021/08/15 09:53:27;;;;;;;0.90;0.63;;;23.60;59.30;;;;;;5059368;28;20511;-78
2021/08/15 09:55:54;;;;;;;1.15;0.88;;;23.70;58.70;;;;;;5059061;28;20032;-78
2021/08/15 09:58:20;;;;;;;0.98;0.63;;;23.70;58.40;;;;;;5058975;28;20043;-78
2021/08/15 10:00:47;;;;;;;1.20;0.80;;;23.60;58.80;;;;;;5059006;28;20021;-78
2021/08/15 10:03:14;;;;;;;1.10;0.70;;;23.60;59.10;;;;;;5058790;28;20028;-78
2021/08/15 10:05:40;;;;;;;1.10;0.70;;;23.50;59.50;;;;;;5059027;28;20434;-78
2021/08/15 10:08:06;;;;;;;1.30;0.80;;;23.50;59.40;;;;;;5058999;28;20094;-78
2021/08/15 10:10:34;;;;;;;0.82;0.50;;;23.40;59.80;;;;;;5058896;28;20407;-78
2021/08/15 10:13:00;;;;;;;1.13;0.80;;;23.50;60.40;;;;;;5058777;28;20040;-78
2021/08/15 10:15:26;;;;;;;0.73;0.45;;;23.40;60.20;;;;;;5058782;28;20025;-78
2021/08/15 10:17:53;;;;;;;1.00;0.60;;;23.30;61.00;;;;;;5058645;28;20032;-78
2021/08/15 10:20:27;;;;;;;0.80;0.50;;;23.40;60.60;;;;;;5063448;28;20096;-78
2021/08/15 10:23:10;;;;;;;0.90;0.60;;;23.30;60.80;;;;;;5078601;28;20035;-78
2021/08/15 10:25:41;;;;;;;0.70;0.40;;;23.30;61.30;;;;;;5058788;28;20067;-78
2021/08/15 10:28:07;;;;;;;1.00;0.50;;;23.30;61.60;;;;;;5058661;28;20025;-78
2021/08/15 10:30:33;;;;;;;1.17;0.57;;;23.30;61.50;;;;;;5058539;28;20025;-78
2021/08/15 10:32:58;;;;;;;0.63;0.40;;;23.30;61.60;;;;;;5058268;28;20037;-78
2021/08/15 10:35:31;;;;;;;0.82;0.55;;;23.30;62.00;;;;;;5073946;28;20029;-78
2021/08/15 10:38:07;;;;;;;0.80;0.52;;;23.50;61.60;;;;;;5058153;28;20025;-79
2021/08/15 10:40:48;;;;;;;0.90;0.60;;;24.20;60.10;;;;;;5076857;28;20494;-78
2021/08/15 10:43:23;;;;;;;0.80;0.40;;;24.50;59.60;;;;;;5072794;28;20064;-78
2021/08/15 10:46:18;;;;;;;0.70;0.40;;;24.40;59.40;;;;;;5073522;28;20033;-78
2021/08/15 10:48:57;;;;;;;0.70;0.50;;;24.50;58.50;;;;;;5075683;28;20032;-78
2021/08/15 10:51:43;;;;;;;0.57;0.32;;;24.50;59.50;;;;;;5078156;28;20491;-78
2021/08/15 10:54:29;;;;;;;0.60;0.30;;;24.60;59.30;;;;;;5076934;28;20032;-78
2021/08/15 10:56:57;;;;;;;0.60;0.30;;;24.30;60.30;;;;;;5060824;28;20040;-78
2021/08/15 10:59:33;;;;;;;0.52;0.30;;;24.40;59.50;;;;;;5058001;28;20082;-78
2021/08/15 11:02:09;;;;;;;0.60;0.30;;;24.30;58.90;;;;;;5057648;28;20442;-78
2021/08/15 11:04:35;;;;;;;0.55;0.30;;;24.20;59.80;;;;;;5057870;28;20040;-78
2021/08/15 11:07:01;;;;;;;0.43;0.20;;;24.30;58.90;;;;;;5057683;28;20022;-78
2021/08/15 11:09:54;;;;;;;0.43;0.30;;;24.30;58.80;;;;;;5057592;28;20567;-78
2021/08/15 11:12:20;;;;;;;3.85;3.47;;;24.30;59.60;;;;;;5058035;28;20021;-78
2021/08/15 11:14:53;;;;;;;1.05;0.70;;;24.40;58.90;;;;;;5057468;28;20480;-78
2021/08/15 11:17:19;;;;;;;0.85;0.45;;;24.30;59.30;;;;;;5057425;28;20032;-78
2021/08/15 11:19:44;;;;;;;0.50;0.30;;;24.30;58.60;;;;;;5057601;28;20040;-78
2021/08/15 11:22:14;;;;;;;0.60;0.30;;;24.20;59.60;;;;;;5057548;28;20021;-78
2021/08/15 11:24:43;;;;;;;0.98;0.50;;;24.10;60.00;;;;;;5057315;28;20078;-78
2021/08/15 11:27:10;;;;;;;0.90;0.30;;;24.30;59.50;;;;;;5057283;28;20029;-78
2021/08/15 11:29:37;;;;;;;0.80;0.30;;;24.50;59.30;;;;;;5057420;28;20033;-78
2021/08/15 11:32:03;;;;;;;0.75;0.40;;;24.60;58.90;;;;;;5057215;28;20074;-78
2021/08/15 11:34:29;;;;;;;0.77;0.50;;;24.70;57.70;;;;;;5057040;28;20037;-78
2021/08/15 11:37:06;;;;;;;0.85;0.50;;;24.70;58.50;;;;;;5057194;28;20548;-78
2021/08/15 11:39:32;;;;;;;0.70;0.35;;;24.80;57.50;;;;;;5057289;28;20112;-78
2021/08/15 11:42:04;;;;;;;0.50;0.30;;;24.80;58.30;;;;;;5063697;28;20036;-78
2021/08/15 11:44:52;;;;;;;1.27;0.38;;;24.80;58.00;;;;;;5056963;28;20052;-78
2021/08/15 11:47:28;;;;;;;0.47;0.30;;;25.00;57.70;;;;;;5056631;28;20029;-78
2021/08/15 11:49:56;;;;;;;0.70;0.32;;;25.30;57.00;;;;;;5056990;28;20021;-79
2021/08/15 11:52:31;;;;;;;1.00;0.30;;;25.60;57.10;;;;;;5056826;28;20068;-78
2021/08/15 11:54:57;;;;;;;0.35;0.20;;;25.80;57.10;;;;;;5055380;28;20033;-78
2021/08/15 11:57:23;;;;;;;0.47;0.30;;;26.00;57.40;;;;;;5056847;28;20029;-78
2021/08/15 12:00:02;;;;;;;0.73;0.40;;;25.90;55.30;;;;;;5072211;28;20028;-78
2021/08/15 12:02:28;;;;;;;0.50;0.20;;;25.50;57.40;;;;;;5056925;28;20110;-78
2021/08/15 12:04:54;;;;;;;0.55;0.30;;;25.70;59.20;;;;;;5056770;28;20033;-79
2021/08/15 12:07:24;;;;;;;0.50;0.30;;;25.80;55.70;;;;;;5056029;28;20103;-78
2021/08/15 12:10:22;;;;;;;0.30;0.20;;;25.90;56.30;;;;;;5056317;28;20032;-78
2021/08/15 12:13:08;;;;;;;0.55;0.20;;;26.20;57.50;;;;;;5056617;28;20041;-78
2021/08/15 12:15:34;;;;;;;0.50;0.30;;;26.30;56.80;;;;;;5056362;28;20032;-79
2021/08/15 12:17:59;;;;;;;0.47;0.28;;;26.30;54.80;;;;;;5070693;28;20025;-78
2021/08/15 12:20:25;;;;;;;0.43;0.30;;;26.20;55.40;;;;;;5056636;28;20035;-78
2021/08/15 12:22:51;;;;;;;0.35;0.20;;;26.30;56.00;;;;;;5056232;28;20043;-78
2021/08/15 12:25:23;;;;;;;0.40;0.20;;;26.30;54.30;;;;;;5056298;28;20035;-78
2021/08/15 12:27:49;;;;;;;0.40;0.20;;;26.30;55.20;;;;;;5071868;28;20028;-78
2021/08/15 12:30:28;;;;;;;0.40;0.20;;;26.30;54.80;;;;;;5058785;28;20391;-78
2021/08/15 12:32:54;;;;;;;0.50;0.20;;;26.40;55.30;;;;;;5061588;28;20075;-78
2021/08/15 12:35:26;;;;;;;0.35;0.20;;;26.60;55.40;;;;;;5055983;28;20474;-78
2021/08/15 12:37:53;;;;;;;0.30;0.20;;;26.20;56.20;;;;;;5056119;28;20021;-78
2021/08/15 12:40:26;;;;;;;0.43;0.20;;;25.90;56.60;;;;;;5059608;28;20016;-78
2021/08/15 12:43:04;;;;;;;0.63;0.25;;;25.90;56.20;;;;;;5076138;28;20081;-78
2021/08/15 12:45:40;;;;;;;0.50;0.20;;;26.10;54.70;;;;;;5057885;28;20042;-79
2021/08/15 12:48:06;;;;;;;0.50;0.20;;;26.30;55.20;;;;;;5055815;28;20499;-78
2021/08/15 12:50:34;;;;;;;0.20;0.10;;;26.30;55.50;;;;;;5054768;28;20024;-78
2021/08/15 12:53:02;;;;;;;0.40;0.20;;;26.30;55.30;;;;;;5055790;28;20039;-78